sensor_id;sensor_type;location;lat;lon;timestamp;P1;durP1;ratioP1;P2;durP2;ratioP2
34876;SDS011;21086;44.780;17.194;2022-12-18T00:02:26;33.95;;;20.17;;
34876;SDS011;21086;44.780;17.194;2022-12-18T02:01:57;29.17;;;17.00;;
34876;SDS011;21086;44.780;17.194;2022-12-18T02:04:25;23.15;;;14.23;;
34876;SDS011;21086;44.780;17.194;2022-12-18T02:07:16;23.50;;;16.17;;
34876;SDS011;21086;44.780;17.194;2022-12-18T02:12:25;21.00;;;13.10;;
34876;SDS011;21086;44.780;17.194;2022-12-18T02:15:10;22.52;;;14.45;;
34876;SDS011;21086;44.780;17.194;2022-12-18T02:17:47;19.42;;;12.48;;
34876;SDS011;21086;44.780;17.194;2022-12-18T02:20:21;21.30;;;13.95;;
34876;SDS011;21086;44.780;17.194;2022-12-18T02:28:32;23.13;;;14.07;;
34876;SDS011;21086;44.780;17.194;2022-12-18T02:31:05;22.48;;;13.48;;
34876;SDS011;21086;44.780;17.194;2022-12-18T02:33:34;20.73;;;13.73;;
34876;SDS011;21086;44.780;17.194;2022-12-18T02:36:04;24.52;;;14.43;;
34876;SDS011;21086;44.780;17.194;2022-12-18T02:38:32;21.80;;;13.77;;
34876;SDS011;21086;44.780;17.194;2022-12-18T02:41:01;27.30;;;15.90;;
34876;SDS011;21086;44.780;17.194;2022-12-18T02:43:30;22.27;;;14.23;;
34876;SDS011;21086;44.780;17.194;2022-12-18T02:45:58;20.45;;;13.23;;
34876;SDS011;21086;44.780;17.194;2022-12-18T02:48:34;16.92;;;10.80;;
34876;SDS011;21086;44.780;17.194;2022-12-18T02:51:21;22.05;;;13.77;;
34876;SDS011;21086;44.780;17.194;2022-12-18T02:54:00;20.38;;;12.40;;
34876;SDS011;21086;44.780;17.194;2022-12-18T02:56:41;20.52;;;12.20;;
34876;SDS011;21086;44.780;17.194;2022-12-18T02:59:17;20.08;;;12.45;;
34876;SDS011;21086;44.780;17.194;2022-12-18T03:01:57;19.80;;;12.05;;
34876;SDS011;21086;44.780;17.194;2022-12-18T03:06:59;26.77;;;16.48;;
34876;SDS011;21086;44.780;17.194;2022-12-18T03:09:34;20.88;;;13.52;;
34876;SDS011;21086;44.780;17.194;2022-12-18T03:12:07;22.95;;;14.90;;
34876;SDS011;21086;44.780;17.194;2022-12-18T03:17:44;27.60;;;16.98;;
34876;SDS011;21086;44.780;17.194;2022-12-18T03:20:22;22.77;;;13.30;;
34876;SDS011;21086;44.780;17.194;2022-12-18T03:22:53;18.58;;;11.50;;
34876;SDS011;21086;44.780;17.194;2022-12-18T03:25:26;28.55;;;16.35;;
34876;SDS011;21086;44.780;17.194;2022-12-18T03:27:56;30.25;;;17.58;;
34876;SDS011;21086;44.780;17.194;2022-12-18T03:30:26;37.85;;;20.25;;
34876;SDS011;21086;44.780;17.194;2022-12-18T03:32:58;28.13;;;15.65;;
34876;SDS011;21086;44.780;17.194;2022-12-18T03:35:40;29.27;;;16.38;;
34876;SDS011;21086;44.780;17.194;2022-12-18T03:38:09;33.30;;;21.13;;
34876;SDS011;21086;44.780;17.194;2022-12-18T03:43:32;23.63;;;15.80;;
34876;SDS011;21086;44.780;17.194;2022-12-18T03:46:28;28.58;;;18.52;;
34876;SDS011;21086;44.780;17.194;2022-12-18T03:49:01;25.58;;;14.57;;
34876;SDS011;21086;44.780;17.194;2022-12-18T03:54:14;20.55;;;14.15;;
34876;SDS011;21086;44.780;17.194;2022-12-18T03:56:44;27.70;;;17.58;;
34876;SDS011;21086;44.780;17.194;2022-12-18T03:59:15;30.70;;;19.50;;
34876;SDS011;21086;44.780;17.194;2022-12-18T04:01:47;26.00;;;16.08;;
34876;SDS011;21086;44.780;17.194;2022-12-18T04:04:17;21.58;;;12.07;;
34876;SDS011;21086;44.780;17.194;2022-12-18T04:06:46;22.73;;;13.32;;
34876;SDS011;21086;44.780;17.194;2022-12-18T04:09:15;18.83;;;12.43;;
34876;SDS011;21086;44.780;17.194;2022-12-18T04:11:42;24.80;;;12.65;;
34876;SDS011;21086;44.780;17.194;2022-12-18T04:14:10;21.00;;;11.88;;
34876;SDS011;21086;44.780;17.194;2022-12-18T04:16:43;25.48;;;14.88;;
34876;SDS011;21086;44.780;17.194;2022-12-18T04:19:10;24.13;;;15.40;;
34876;SDS011;21086;44.780;17.194;2022-12-18T04:21:37;24.35;;;15.63;;
34876;SDS011;21086;44.780;17.194;2022-12-18T04:24:04;29.40;;;17.05;;
34876;SDS011;21086;44.780;17.194;2022-12-18T04:26:31;32.22;;;19.70;;
34876;SDS011;21086;44.780;17.194;2022-12-18T04:28:58;20.67;;;13.73;;
34876;SDS011;21086;44.780;17.194;2022-12-18T04:31:25;31.13;;;17.98;;
34876;SDS011;21086;44.780;17.194;2022-12-18T04:33:52;26.00;;;16.38;;
34876;SDS011;21086;44.780;17.194;2022-12-18T04:36:19;22.30;;;14.15;;
34876;SDS011;21086;44.780;17.194;2022-12-18T04:38:46;34.65;;;21.08;;
34876;SDS011;21086;44.780;17.194;2022-12-18T04:41:13;32.10;;;20.38;;
34876;SDS011;21086;44.780;17.194;2022-12-18T04:43:40;36.45;;;20.25;;
34876;SDS011;21086;44.780;17.194;2022-12-18T04:46:08;27.23;;;16.15;;
34876;SDS011;21086;44.780;17.194;2022-12-18T04:48:35;23.88;;;14.98;;
34876;SDS011;21086;44.780;17.194;2022-12-18T04:51:03;26.58;;;16.30;;
34876;SDS011;21086;44.780;17.194;2022-12-18T04:53:31;21.58;;;14.45;;
34876;SDS011;21086;44.780;17.194;2022-12-18T04:56:12;30.67;;;17.23;;
34876;SDS011;21086;44.780;17.194;2022-12-18T04:58:41;29.98;;;18.98;;
34876;SDS011;21086;44.780;17.194;2022-12-18T05:01:11;32.30;;;18.17;;
34876;SDS011;21086;44.780;17.194;2022-12-18T05:03:39;27.38;;;16.33;;
34876;SDS011;21086;44.780;17.194;2022-12-18T05:06:07;26.70;;;15.32;;
34876;SDS011;21086;44.780;17.194;2022-12-18T05:08:34;23.17;;;14.68;;
34876;SDS011;21086;44.780;17.194;2022-12-18T05:11:02;30.67;;;17.95;;
34876;SDS011;21086;44.780;17.194;2022-12-18T05:13:34;25.70;;;16.83;;
34876;SDS011;21086;44.780;17.194;2022-12-18T05:16:02;27.25;;;17.50;;
34876;SDS011;21086;44.780;17.194;2022-12-18T05:18:30;24.30;;;15.25;;
34876;SDS011;21086;44.780;17.194;2022-12-18T05:20:57;25.25;;;15.85;;
34876;SDS011;21086;44.780;17.194;2022-12-18T05:23:25;23.33;;;14.23;;
34876;SDS011;21086;44.780;17.194;2022-12-18T05:25:53;25.30;;;15.45;;
34876;SDS011;21086;44.780;17.194;2022-12-18T05:28:22;31.27;;;20.00;;
34876;SDS011;21086;44.780;17.194;2022-12-18T05:30:52;25.10;;;15.82;;
34876;SDS011;21086;44.780;17.194;2022-12-18T05:33:20;22.33;;;13.85;;
34876;SDS011;21086;44.780;17.194;2022-12-18T05:35:56;28.65;;;18.13;;
34876;SDS011;21086;44.780;17.194;2022-12-18T05:38:25;26.33;;;15.65;;
34876;SDS011;21086;44.780;17.194;2022-12-18T05:40:53;23.30;;;15.70;;
34876;SDS011;21086;44.780;17.194;2022-12-18T05:43:21;25.52;;;15.40;;
34876;SDS011;21086;44.780;17.194;2022-12-18T05:45:49;20.80;;;12.85;;
34876;SDS011;21086;44.780;17.194;2022-12-18T05:48:17;26.23;;;16.83;;
34876;SDS011;21086;44.780;17.194;2022-12-18T05:50:45;25.65;;;16.38;;
34876;SDS011;21086;44.780;17.194;2022-12-18T05:53:13;26.88;;;17.38;;
34876;SDS011;21086;44.780;17.194;2022-12-18T05:55:42;24.38;;;14.35;;
34876;SDS011;21086;44.780;17.194;2022-12-18T05:58:10;21.83;;;13.57;;
34876;SDS011;21086;44.780;17.194;2022-12-18T06:00:39;26.38;;;18.10;;
34876;SDS011;21086;44.780;17.194;2022-12-18T06:03:08;33.03;;;20.90;;
34876;SDS011;21086;44.780;17.194;2022-12-18T06:05:36;29.67;;;18.92;;
34876;SDS011;21086;44.780;17.194;2022-12-18T06:08:05;25.10;;;15.07;;
34876;SDS011;21086;44.780;17.194;2022-12-18T06:10:32;31.00;;;18.50;;
34876;SDS011;21086;44.780;17.194;2022-12-18T06:12:59;21.08;;;12.35;;
34876;SDS011;21086;44.780;17.194;2022-12-18T06:15:26;28.42;;;15.82;;
34876;SDS011;21086;44.780;17.194;2022-12-18T06:17:53;30.35;;;18.77;;
34876;SDS011;21086;44.780;17.194;2022-12-18T06:20:20;25.40;;;17.60;;
34876;SDS011;21086;44.780;17.194;2022-12-18T06:22:48;42.53;;;24.90;;
34876;SDS011;21086;44.780;17.194;2022-12-18T06:25:15;33.20;;;19.88;;
34876;SDS011;21086;44.780;17.194;2022-12-18T06:27:42;38.58;;;20.52;;
34876;SDS011;21086;44.780;17.194;2022-12-18T06:30:09;33.10;;;21.10;;
34876;SDS011;21086;44.780;17.194;2022-12-18T06:32:38;30.17;;;18.55;;
34876;SDS011;21086;44.780;17.194;2022-12-18T06:35:05;25.52;;;16.08;;
34876;SDS011;21086;44.780;17.194;2022-12-18T06:37:32;31.65;;;20.58;;
34876;SDS011;21086;44.780;17.194;2022-12-18T06:39:59;40.15;;;27.50;;
34876;SDS011;21086;44.780;17.194;2022-12-18T06:42:28;27.95;;;17.77;;
34876;SDS011;21086;44.780;17.194;2022-12-18T06:44:55;26.15;;;13.57;;
34876;SDS011;21086;44.780;17.194;2022-12-18T06:47:22;27.15;;;17.13;;
34876;SDS011;21086;44.780;17.194;2022-12-18T06:49:49;30.45;;;20.48;;
34876;SDS011;21086;44.780;17.194;2022-12-18T06:52:16;26.50;;;17.92;;
34876;SDS011;21086;44.780;17.194;2022-12-18T06:54:43;30.23;;;19.77;;
34876;SDS011;21086;44.780;17.194;2022-12-18T06:57:10;32.72;;;21.15;;
34876;SDS011;21086;44.780;17.194;2022-12-18T06:59:37;33.88;;;21.55;;
34876;SDS011;21086;44.780;17.194;2022-12-18T07:02:04;40.35;;;24.08;;
34876;SDS011;21086;44.780;17.194;2022-12-18T07:04:31;44.65;;;26.63;;
34876;SDS011;21086;44.780;17.194;2022-12-18T07:06:58;31.35;;;20.42;;
34876;SDS011;21086;44.780;17.194;2022-12-18T07:09:25;34.58;;;22.27;;
34876;SDS011;21086;44.780;17.194;2022-12-18T07:11:54;39.00;;;25.05;;
34876;SDS011;21086;44.780;17.194;2022-12-18T07:14:21;39.42;;;25.90;;
34876;SDS011;21086;44.780;17.194;2022-12-18T07:16:48;32.05;;;19.95;;
34876;SDS011;21086;44.780;17.194;2022-12-18T07:19:15;43.45;;;29.10;;
34876;SDS011;21086;44.780;17.194;2022-12-18T07:21:42;35.63;;;23.33;;
34876;SDS011;21086;44.780;17.194;2022-12-18T07:24:09;35.60;;;23.75;;
34876;SDS011;21086;44.780;17.194;2022-12-18T07:26:36;28.20;;;18.38;;
34876;SDS011;21086;44.780;17.194;2022-12-18T07:29:03;34.28;;;21.95;;
34876;SDS011;21086;44.780;17.194;2022-12-18T07:31:29;39.13;;;26.38;;
34876;SDS011;21086;44.780;17.194;2022-12-18T07:33:56;41.92;;;25.52;;
34876;SDS011;21086;44.780;17.194;2022-12-18T07:36:24;38.15;;;24.52;;
34876;SDS011;21086;44.780;17.194;2022-12-18T07:38:51;36.25;;;21.60;;
34876;SDS011;21086;44.780;17.194;2022-12-18T07:41:19;42.33;;;24.77;;
34876;SDS011;21086;44.780;17.194;2022-12-18T07:43:46;34.88;;;22.40;;
34876;SDS011;21086;44.780;17.194;2022-12-18T07:46:14;32.00;;;20.05;;
34876;SDS011;21086;44.780;17.194;2022-12-18T07:48:42;33.03;;;19.85;;
34876;SDS011;21086;44.780;17.194;2022-12-18T07:51:14;38.10;;;24.58;;
34876;SDS011;21086;44.780;17.194;2022-12-18T07:53:42;46.00;;;30.83;;
34876;SDS011;21086;44.780;17.194;2022-12-18T07:56:09;34.03;;;22.13;;
34876;SDS011;21086;44.780;17.194;2022-12-18T07:58:56;31.58;;;20.92;;
34876;SDS011;21086;44.780;17.194;2022-12-18T08:01:23;37.90;;;26.52;;
34876;SDS011;21086;44.780;17.194;2022-12-18T08:03:50;42.92;;;27.55;;
34876;SDS011;21086;44.780;17.194;2022-12-18T08:06:18;63.08;;;38.42;;
34876;SDS011;21086;44.780;17.194;2022-12-18T08:08:53;32.08;;;20.52;;
34876;SDS011;21086;44.780;17.194;2022-12-18T08:11:21;32.65;;;20.48;;
34876;SDS011;21086;44.780;17.194;2022-12-18T08:13:49;33.08;;;21.05;;
34876;SDS011;21086;44.780;17.194;2022-12-18T08:16:16;23.65;;;16.23;;
34876;SDS011;21086;44.780;17.194;2022-12-18T08:18:43;42.40;;;27.15;;
34876;SDS011;21086;44.780;17.194;2022-12-18T08:21:11;38.53;;;26.30;;
34876;SDS011;21086;44.780;17.194;2022-12-18T08:23:40;48.42;;;30.15;;
34876;SDS011;21086;44.780;17.194;2022-12-18T08:26:08;83.68;;;54.13;;
34876;SDS011;21086;44.780;17.194;2022-12-18T08:28:36;49.35;;;33.45;;
34876;SDS011;21086;44.780;17.194;2022-12-18T08:31:04;39.65;;;28.05;;
34876;SDS011;21086;44.780;17.194;2022-12-18T08:33:31;55.40;;;38.33;;
34876;SDS011;21086;44.780;17.194;2022-12-18T08:35:59;56.90;;;38.05;;
34876;SDS011;21086;44.780;17.194;2022-12-18T08:38:27;51.90;;;33.08;;
34876;SDS011;21086;44.780;17.194;2022-12-18T08:41:00;68.60;;;45.47;;
34876;SDS011;21086;44.780;17.194;2022-12-18T08:43:28;51.70;;;32.17;;
34876;SDS011;21086;44.780;17.194;2022-12-18T08:46:14;55.38;;;35.40;;
34876;SDS011;21086;44.780;17.194;2022-12-18T08:48:41;51.88;;;33.78;;
34876;SDS011;21086;44.780;17.194;2022-12-18T08:51:08;57.20;;;35.45;;
34876;SDS011;21086;44.780;17.194;2022-12-18T08:53:38;53.15;;;36.78;;
34876;SDS011;21086;44.780;17.194;2022-12-18T08:56:07;37.38;;;26.92;;
34876;SDS011;21086;44.780;17.194;2022-12-18T08:58:34;29.52;;;20.35;;
34876;SDS011;21086;44.780;17.194;2022-12-18T09:01:06;36.35;;;23.98;;
34876;SDS011;21086;44.780;17.194;2022-12-18T09:03:35;48.90;;;31.20;;
34876;SDS011;21086;44.780;17.194;2022-12-18T09:06:04;34.42;;;22.63;;
34876;SDS011;21086;44.780;17.194;2022-12-18T09:08:31;27.80;;;18.55;;
34876;SDS011;21086;44.780;17.194;2022-12-18T09:11:03;27.85;;;19.35;;
34876;SDS011;21086;44.780;17.194;2022-12-18T09:13:30;28.20;;;20.88;;
34876;SDS011;21086;44.780;17.194;2022-12-18T09:15:57;37.47;;;27.08;;
34876;SDS011;21086;44.780;17.194;2022-12-18T09:18:25;36.45;;;27.10;;
34876;SDS011;21086;44.780;17.194;2022-12-18T09:20:52;34.83;;;24.45;;
34876;SDS011;21086;44.780;17.194;2022-12-18T09:23:19;29.45;;;20.45;;
34876;SDS011;21086;44.780;17.194;2022-12-18T09:25:47;34.25;;;23.20;;
34876;SDS011;21086;44.780;17.194;2022-12-18T09:28:15;37.15;;;25.70;;
34876;SDS011;21086;44.780;17.194;2022-12-18T09:30:48;24.75;;;18.73;;
34876;SDS011;21086;44.780;17.194;2022-12-18T09:33:16;25.52;;;18.25;;
34876;SDS011;21086;44.780;17.194;2022-12-18T09:35:44;25.60;;;17.17;;
34876;SDS011;21086;44.780;17.194;2022-12-18T09:38:12;32.88;;;19.48;;
34876;SDS011;21086;44.780;17.194;2022-12-18T09:40:42;20.80;;;14.73;;
34876;SDS011;21086;44.780;17.194;2022-12-18T09:43:16;30.25;;;21.48;;
34876;SDS011;21086;44.780;17.194;2022-12-18T09:45:55;23.55;;;17.65;;
34876;SDS011;21086;44.780;17.194;2022-12-18T09:48:40;21.10;;;15.48;;
34876;SDS011;21086;44.780;17.194;2022-12-18T09:51:15;23.65;;;16.10;;
34876;SDS011;21086;44.780;17.194;2022-12-18T09:53:47;22.55;;;15.88;;
34876;SDS011;21086;44.780;17.194;2022-12-18T09:56:19;16.17;;;12.55;;
34876;SDS011;21086;44.780;17.194;2022-12-18T09:58:51;23.60;;;15.82;;
34876;SDS011;21086;44.780;17.194;2022-12-18T10:01:28;22.17;;;15.43;;
34876;SDS011;21086;44.780;17.194;2022-12-18T10:04:09;21.25;;;15.85;;
34876;SDS011;21086;44.780;17.194;2022-12-18T10:06:39;27.50;;;18.73;;
34876;SDS011;21086;44.780;17.194;2022-12-18T10:09:41;19.67;;;14.30;;
34876;SDS011;21086;44.780;17.194;2022-12-18T10:15:07;18.90;;;13.40;;
34876;SDS011;21086;44.780;17.194;2022-12-18T10:26:23;20.42;;;16.85;;
34876;SDS011;21086;44.780;17.194;2022-12-18T10:28:51;19.50;;;15.70;;
34876;SDS011;21086;44.780;17.194;2022-12-18T10:31:22;22.25;;;16.38;;
34876;SDS011;21086;44.780;17.194;2022-12-18T10:33:50;24.38;;;18.75;;
34876;SDS011;21086;44.780;17.194;2022-12-18T10:36:22;21.65;;;16.48;;
34876;SDS011;21086;44.780;17.194;2022-12-18T10:38:51;24.30;;;16.58;;
34876;SDS011;21086;44.780;17.194;2022-12-18T10:43:47;21.17;;;15.00;;
34876;SDS011;21086;44.780;17.194;2022-12-18T10:46:15;22.35;;;17.40;;
34876;SDS011;21086;44.780;17.194;2022-12-18T10:48:56;19.58;;;16.00;;
34876;SDS011;21086;44.780;17.194;2022-12-18T10:51:28;17.55;;;14.43;;
34876;SDS011;21086;44.780;17.194;2022-12-18T10:54:00;15.25;;;12.05;;
34876;SDS011;21086;44.780;17.194;2022-12-18T10:56:47;14.65;;;11.93;;
34876;SDS011;21086;44.780;17.194;2022-12-18T10:59:15;15.00;;;11.40;;
34876;SDS011;21086;44.780;17.194;2022-12-18T11:01:50;14.68;;;12.07;;
34876;SDS011;21086;44.780;17.194;2022-12-18T11:04:22;10.73;;;8.82;;
34876;SDS011;21086;44.780;17.194;2022-12-18T11:09:32;11.75;;;8.77;;
34876;SDS011;21086;44.780;17.194;2022-12-18T11:12:24;11.05;;;8.95;;
34876;SDS011;21086;44.780;17.194;2022-12-18T11:14:51;13.43;;;9.27;;
34876;SDS011;21086;44.780;17.194;2022-12-18T11:17:22;14.02;;;10.15;;
34876;SDS011;21086;44.780;17.194;2022-12-18T11:19:56;11.15;;;8.35;;
34876;SDS011;21086;44.780;17.194;2022-12-18T11:22:43;12.48;;;9.40;;
34876;SDS011;21086;44.780;17.194;2022-12-18T11:25:22;13.57;;;8.88;;
34876;SDS011;21086;44.780;17.194;2022-12-18T11:27:59;11.82;;;8.40;;
34876;SDS011;21086;44.780;17.194;2022-12-18T11:30:34;10.38;;;8.80;;
34876;SDS011;21086;44.780;17.194;2022-12-18T11:40:57;10.48;;;7.60;;
34876;SDS011;21086;44.780;17.194;2022-12-18T11:43:29;10.40;;;6.50;;
34876;SDS011;21086;44.780;17.194;2022-12-18T11:48:37;11.05;;;8.55;;
34876;SDS011;21086;44.780;17.194;2022-12-18T11:51:19;11.23;;;7.75;;
34876;SDS011;21086;44.780;17.194;2022-12-18T11:53:54;10.10;;;5.80;;
34876;SDS011;21086;44.780;17.194;2022-12-18T12:23:03;8.48;;;5.35;;
34876;SDS011;21086;44.780;17.194;2022-12-18T12:25:46;6.93;;;5.15;;
34876;SDS011;21086;44.780;17.194;2022-12-18T12:33:37;6.00;;;5.03;;
34876;SDS011;21086;44.780;17.194;2022-12-18T12:38:51;14.07;;;12.60;;
34876;SDS011;21086;44.780;17.194;2022-12-18T12:41:23;9.65;;;6.43;;
34876;SDS011;21086;44.780;17.194;2022-12-18T12:44:34;10.80;;;6.35;;
34876;SDS011;21086;44.780;17.194;2022-12-18T12:49:53;10.15;;;5.85;;
34876;SDS011;21086;44.780;17.194;2022-12-18T12:52:28;12.30;;;10.10;;
34876;SDS011;21086;44.780;17.194;2022-12-18T12:55:02;9.82;;;6.50;;
34876;SDS011;21086;44.780;17.194;2022-12-18T12:57:40;10.02;;;8.25;;
34876;SDS011;21086;44.780;17.194;2022-12-18T13:00:14;11.45;;;7.82;;
34876;SDS011;21086;44.780;17.194;2022-12-18T13:05:25;8.13;;;6.82;;
34876;SDS011;21086;44.780;17.194;2022-12-18T13:08:22;8.38;;;6.50;;
34876;SDS011;21086;44.780;17.194;2022-12-18T13:11:00;8.10;;;7.10;;
34876;SDS011;21086;44.780;17.194;2022-12-18T13:13:53;12.02;;;8.20;;
34876;SDS011;21086;44.780;17.194;2022-12-18T13:16:22;9.80;;;8.25;;
34876;SDS011;21086;44.780;17.194;2022-12-18T13:18:51;10.05;;;7.75;;
34876;SDS011;21086;44.780;17.194;2022-12-18T13:21:28;12.15;;;8.10;;
34876;SDS011;21086;44.780;17.194;2022-12-18T13:23:57;9.95;;;7.47;;
34876;SDS011;21086;44.780;17.194;2022-12-18T13:26:52;8.18;;;6.35;;
34876;SDS011;21086;44.780;17.194;2022-12-18T13:29:40;8.27;;;5.82;;
34876;SDS011;21086;44.780;17.194;2022-12-18T13:32:19;8.15;;;6.40;;
34876;SDS011;21086;44.780;17.194;2022-12-18T13:37:44;11.73;;;7.03;;
34876;SDS011;21086;44.780;17.194;2022-12-18T13:49:06;8.15;;;6.97;;
34876;SDS011;21086;44.780;17.194;2022-12-18T13:51:43;10.63;;;6.97;;
34876;SDS011;21086;44.780;17.194;2022-12-18T13:54:23;11.82;;;9.52;;
34876;SDS011;21086;44.780;17.194;2022-12-18T13:57:01;13.80;;;10.50;;
34876;SDS011;21086;44.780;17.194;2022-12-18T13:59:38;14.43;;;11.25;;
34876;SDS011;21086;44.780;17.194;2022-12-18T14:02:13;8.68;;;6.70;;
34876;SDS011;21086;44.780;17.194;2022-12-18T14:04:44;10.52;;;7.97;;
34876;SDS011;21086;44.780;17.194;2022-12-18T14:07:26;11.38;;;7.45;;
34876;SDS011;21086;44.780;17.194;2022-12-18T14:10:01;10.32;;;8.18;;
34876;SDS011;21086;44.780;17.194;2022-12-18T14:12:49;13.50;;;10.90;;
34876;SDS011;21086;44.780;17.194;2022-12-18T14:17:54;17.88;;;12.30;;
34876;SDS011;21086;44.780;17.194;2022-12-18T14:20:27;13.82;;;11.80;;
34876;SDS011;21086;44.780;17.194;2022-12-18T14:22:57;13.02;;;10.15;;
34876;SDS011;21086;44.780;17.194;2022-12-18T14:25:26;17.13;;;14.18;;
34876;SDS011;21086;44.780;17.194;2022-12-18T14:30:38;18.80;;;14.52;;
34876;SDS011;21086;44.780;17.194;2022-12-18T14:33:13;19.15;;;13.80;;
34876;SDS011;21086;44.780;17.194;2022-12-18T14:36:01;16.67;;;13.48;;
34876;SDS011;21086;44.780;17.194;2022-12-18T14:41:06;18.42;;;12.68;;
34876;SDS011;21086;44.780;17.194;2022-12-18T14:43:38;19.48;;;14.98;;
34876;SDS011;21086;44.780;17.194;2022-12-18T14:51:53;23.52;;;16.88;;
34876;SDS011;21086;44.780;17.194;2022-12-18T14:54:22;23.73;;;17.23;;
34876;SDS011;21086;44.780;17.194;2022-12-18T14:57:37;23.52;;;17.48;;
34876;SDS011;21086;44.780;17.194;2022-12-18T14:59:48;28.10;;;21.23;;
34876;SDS011;21086;44.780;17.194;2022-12-18T15:02:26;33.33;;;23.25;;
34876;SDS011;21086;44.780;17.194;2022-12-18T15:05:01;32.63;;;20.48;;
34876;SDS011;21086;44.780;17.194;2022-12-18T15:07:52;31.67;;;21.48;;
34876;SDS011;21086;44.780;17.194;2022-12-18T15:10:25;30.65;;;20.02;;
34876;SDS011;21086;44.780;17.194;2022-12-18T15:15:55;27.02;;;18.00;;
34876;SDS011;21086;44.780;17.194;2022-12-18T15:18:16;23.42;;;15.38;;
34876;SDS011;21086;44.780;17.194;2022-12-18T15:20:50;25.38;;;17.13;;
34876;SDS011;21086;44.780;17.194;2022-12-18T15:28:30;22.50;;;13.25;;
34876;SDS011;21086;44.780;17.194;2022-12-18T15:33:36;23.52;;;15.95;;
34876;SDS011;21086;44.780;17.194;2022-12-18T15:36:07;30.33;;;17.73;;
34876;SDS011;21086;44.780;17.194;2022-12-18T15:38:36;28.80;;;17.50;;
34876;SDS011;21086;44.780;17.194;2022-12-18T15:41:03;19.20;;;13.30;;
34876;SDS011;21086;44.780;17.194;2022-12-18T15:43:39;25.75;;;17.13;;
34876;SDS011;21086;44.780;17.194;2022-12-18T15:46:14;25.83;;;16.77;;
34876;SDS011;21086;44.780;17.194;2022-12-18T15:48:51;36.15;;;24.17;;
34876;SDS011;21086;44.780;17.194;2022-12-18T15:51:28;33.45;;;19.30;;
34876;SDS011;21086;44.780;17.194;2022-12-18T15:53:59;23.65;;;14.95;;
34876;SDS011;21086;44.780;17.194;2022-12-18T15:56:28;22.30;;;14.98;;
34876;SDS011;21086;44.780;17.194;2022-12-18T15:59:17;29.17;;;17.17;;
34876;SDS011;21086;44.780;17.194;2022-12-18T16:01:46;25.77;;;14.50;;
34876;SDS011;21086;44.780;17.194;2022-12-18T16:04:16;30.08;;;16.23;;
34876;SDS011;21086;44.780;17.194;2022-12-18T16:06:49;27.58;;;16.42;;
34876;SDS011;21086;44.780;17.194;2022-12-18T16:09:37;107.45;;;65.13;;
34876;SDS011;21086;44.780;17.194;2022-12-18T16:12:05;68.25;;;41.15;;
34876;SDS011;21086;44.780;17.194;2022-12-18T16:14:38;53.92;;;34.03;;
34876;SDS011;21086;44.780;17.194;2022-12-18T16:17:05;37.95;;;23.08;;
34876;SDS011;21086;44.780;17.194;2022-12-18T16:19:36;37.28;;;20.92;;
34876;SDS011;21086;44.780;17.194;2022-12-18T16:22:03;37.63;;;23.48;;
34876;SDS011;21086;44.780;17.194;2022-12-18T16:24:32;33.60;;;20.40;;
34876;SDS011;21086;44.780;17.194;2022-12-18T16:27:02;30.10;;;18.10;;
34876;SDS011;21086;44.780;17.194;2022-12-18T16:29:29;40.70;;;24.77;;
34876;SDS011;21086;44.780;17.194;2022-12-18T16:31:57;35.90;;;22.85;;
34876;SDS011;21086;44.780;17.194;2022-12-18T16:34:26;31.85;;;19.42;;
34876;SDS011;21086;44.780;17.194;2022-12-18T16:37:02;32.58;;;19.80;;
34876;SDS011;21086;44.780;17.194;2022-12-18T16:39:32;29.70;;;18.10;;
34876;SDS011;21086;44.780;17.194;2022-12-18T16:42:03;32.13;;;19.02;;
34876;SDS011;21086;44.780;17.194;2022-12-18T16:44:35;31.13;;;19.50;;
34876;SDS011;21086;44.780;17.194;2022-12-18T16:47:03;24.70;;;13.73;;
34876;SDS011;21086;44.780;17.194;2022-12-18T16:49:32;27.63;;;16.45;;
34876;SDS011;21086;44.780;17.194;2022-12-18T16:51:58;17.65;;;10.35;;
34876;SDS011;21086;44.780;17.194;2022-12-18T16:54:27;21.80;;;12.20;;
34876;SDS011;21086;44.780;17.194;2022-12-18T16:56:56;35.80;;;22.08;;
34876;SDS011;21086;44.780;17.194;2022-12-18T16:59:22;31.67;;;17.77;;
34876;SDS011;21086;44.780;17.194;2022-12-18T17:01:52;21.95;;;13.20;;
34876;SDS011;21086;44.780;17.194;2022-12-18T17:04:21;25.15;;;16.65;;
34876;SDS011;21086;44.780;17.194;2022-12-18T17:06:48;22.83;;;13.57;;
34876;SDS011;21086;44.780;17.194;2022-12-18T17:09:17;23.10;;;14.45;;
34876;SDS011;21086;44.780;17.194;2022-12-18T17:11:51;27.98;;;15.68;;
34876;SDS011;21086;44.780;17.194;2022-12-18T17:14:20;21.20;;;12.13;;
34876;SDS011;21086;44.780;17.194;2022-12-18T17:16:50;24.67;;;15.25;;
34876;SDS011;21086;44.780;17.194;2022-12-18T17:19:37;22.08;;;13.85;;
34876;SDS011;21086;44.780;17.194;2022-12-18T17:22:04;37.30;;;21.05;;
34876;SDS011;21086;44.780;17.194;2022-12-18T17:24:33;38.30;;;23.50;;
34876;SDS011;21086;44.780;17.194;2022-12-18T17:27:02;29.88;;;18.05;;
34876;SDS011;21086;44.780;17.194;2022-12-18T17:29:29;50.38;;;32.10;;
34876;SDS011;21086;44.780;17.194;2022-12-18T17:31:57;53.22;;;31.85;;
34876;SDS011;21086;44.780;17.194;2022-12-18T17:34:25;48.42;;;30.23;;
34876;SDS011;21086;44.780;17.194;2022-12-18T17:36:53;54.47;;;30.98;;
34876;SDS011;21086;44.780;17.194;2022-12-18T17:39:20;64.82;;;40.67;;
34876;SDS011;21086;44.780;17.194;2022-12-18T17:41:47;40.78;;;26.52;;
34876;SDS011;21086;44.780;17.194;2022-12-18T17:44:15;37.53;;;23.38;;
34876;SDS011;21086;44.780;17.194;2022-12-18T17:46:43;28.10;;;16.65;;
34876;SDS011;21086;44.780;17.194;2022-12-18T17:49:11;20.92;;;13.70;;
34876;SDS011;21086;44.780;17.194;2022-12-18T17:51:39;19.80;;;11.63;;
34876;SDS011;21086;44.780;17.194;2022-12-18T17:54:08;22.42;;;13.25;;
34876;SDS011;21086;44.780;17.194;2022-12-18T17:56:36;32.70;;;19.98;;
34876;SDS011;21086;44.780;17.194;2022-12-18T17:59:04;45.33;;;28.67;;
34876;SDS011;21086;44.780;17.194;2022-12-18T18:01:32;46.58;;;29.38;;
34876;SDS011;21086;44.780;17.194;2022-12-18T18:04:06;46.00;;;28.70;;
34876;SDS011;21086;44.780;17.194;2022-12-18T18:06:33;49.80;;;30.02;;
34876;SDS011;21086;44.780;17.194;2022-12-18T18:09:05;60.33;;;36.25;;
34876;SDS011;21086;44.780;17.194;2022-12-18T18:11:42;76.85;;;47.22;;
34876;SDS011;21086;44.780;17.194;2022-12-18T18:14:31;75.97;;;44.60;;
34876;SDS011;21086;44.780;17.194;2022-12-18T18:16:58;58.30;;;35.47;;
34876;SDS011;21086;44.780;17.194;2022-12-18T18:19:32;42.88;;;23.75;;
34876;SDS011;21086;44.780;17.194;2022-12-18T18:21:59;53.17;;;32.25;;
34876;SDS011;21086;44.780;17.194;2022-12-18T18:24:28;65.43;;;37.95;;
34876;SDS011;21086;44.780;17.194;2022-12-18T18:26:56;89.93;;;52.97;;
34876;SDS011;21086;44.780;17.194;2022-12-18T18:29:26;73.32;;;43.72;;
34876;SDS011;21086;44.780;17.194;2022-12-18T18:31:55;81.63;;;48.40;;
34876;SDS011;21086;44.780;17.194;2022-12-18T18:34:24;123.75;;;67.70;;
34876;SDS011;21086;44.780;17.194;2022-12-18T18:36:55;101.20;;;56.58;;